createdAt,value
2022-10-30T00:01:49.937Z,89.68
2022-10-30T00:04:16.588Z,89.98
2022-10-30T00:06:43.049Z,89.53
2022-10-30T00:09:10.629Z,89.70
2022-10-30T00:11:37.117Z,89.05
2022-10-30T00:14:03.617Z,87.43
2022-10-30T00:16:30.063Z,86.15
2022-10-30T00:18:56.512Z,84.74
2022-10-30T00:21:23.023Z,83.28
2022-10-30T00:23:52.518Z,82.33
2022-10-30T00:26:22.209Z,80.16
2022-10-30T00:28:52.283Z,79.10
2022-10-30T00:31:19.110Z,77.10
2022-10-30T00:33:53.192Z,76.29
2022-10-30T00:36:20.424Z,75.61
2022-10-30T00:38:47.180Z,75.47
2022-10-30T00:41:19.015Z,74.75
2022-10-30T00:43:45.961Z,74.09
2022-10-30T00:46:25.472Z,73.17
2022-10-30T00:49:03.095Z,73.23
2022-10-30T00:51:31.976Z,73.54
2022-10-30T00:54:00.904Z,75.54
2022-10-30T00:56:27.569Z,76.52
2022-10-30T00:59:02.136Z,77.64
2022-10-30T01:01:32.419Z,78.28
2022-10-30T01:04:01.687Z,78.52
2022-10-30T01:06:29.760Z,79.38
2022-10-30T01:08:59.858Z,84.31
2022-10-30T01:11:27.510Z,84.00
2022-10-30T01:13:56.466Z,83.40
2022-10-30T01:16:39.623Z,87.05
2022-10-30T01:19:34.438Z,89.45
2022-10-30T01:22:23.896Z,91.88
2022-10-30T01:25:25.357Z,91.98
2022-10-30T01:28:07.716Z,92.85
2022-10-30T01:30:47.226Z,94.08
2022-10-30T01:33:36.006Z,93.85
2022-10-30T01:36:28.502Z,93.28
2022-10-30T01:39:18.065Z,94.06
2022-10-30T01:41:45.426Z,92.94
2022-10-30T01:44:27.308Z,91.09
2022-10-30T01:47:12.924Z,92.42
2022-10-30T01:50:07.524Z,94.46
2022-10-30T01:52:59.997Z,94.34
2022-10-30T01:55:41.111Z,93.25
2022-10-30T01:58:27.569Z,91.98
2022-10-30T02:00:58.263Z,92.29
2022-10-30T02:03:26.632Z,92.29
2022-10-30T02:05:54.075Z,92.71
2022-10-30T02:08:22.814Z,92.78
2022-10-30T02:10:52.813Z,92.04
2022-10-30T02:13:30.484Z,91.75
2022-10-30T02:15:58.557Z,92.26
2022-10-30T02:18:25.289Z,92.45
2022-10-30T02:20:51.848Z,93.27
2022-10-30T02:23:19.500Z,93.71
2022-10-30T02:25:46.051Z,94.78
2022-10-30T02:28:12.896Z,95.72
2022-10-30T02:30:43.929Z,96.44
2022-10-30T02:33:10.802Z,97.82
2022-10-30T02:35:37.288Z,97.81
2022-10-30T02:38:03.795Z,97.34
2022-10-30T02:40:30.322Z,95.89
2022-10-30T02:42:56.970Z,92.91
2022-10-30T02:45:23.457Z,91.42
2022-10-30T02:47:49.984Z,89.22
2022-10-30T02:50:17.061Z,87.44
2022-10-30T02:52:43.558Z,85.60
2022-10-30T02:55:10.213Z,83.70
2022-10-30T02:57:38.023Z,83.51
2022-10-30T03:00:05.525Z,83.37
2022-10-30T03:02:32.061Z,83.27
2022-10-30T03:04:59.419Z,83.25
2022-10-30T03:07:25.904Z,83.54
2022-10-30T03:09:54.183Z,83.41
2022-10-30T03:12:21.697Z,83.19
2022-10-30T03:14:48.188Z,83.34
2022-10-30T03:17:14.689Z,83.02
2022-10-30T03:19:41.147Z,83.19
2022-10-30T03:22:08.633Z,83.14
2022-10-30T03:24:38.156Z,83.19
2022-10-30T03:27:05.007Z,82.25
2022-10-30T03:29:31.510Z,82.86
2022-10-30T03:31:58.016Z,82.33
2022-10-30T03:34:29.205Z,82.61
2022-10-30T03:36:55.944Z,82.78
2022-10-30T03:39:22.452Z,82.85
2022-10-30T03:41:49.062Z,84.34
2022-10-30T03:44:15.534Z,86.60
2022-10-30T03:46:41.997Z,84.28
2022-10-30T03:49:18.900Z,83.55
2022-10-30T03:51:45.355Z,84.05
2022-10-30T03:54:12.380Z,83.70
2022-10-30T03:56:38.815Z,83.16
2022-10-30T03:59:06.833Z,82.39
2022-10-30T04:01:38.194Z,82.21
2022-10-30T04:04:04.876Z,82.75
2022-10-30T04:06:31.416Z,83.46
2022-10-30T04:08:57.892Z,84.06
2022-10-30T04:11:24.594Z,84.20
2022-10-30T04:13:51.121Z,83.44
2022-10-30T04:16:17.572Z,84.48
2022-10-30T04:18:44.480Z,83.82
2022-10-30T04:21:11.755Z,83.58
2022-10-30T04:23:38.286Z,84.11
2022-10-30T04:26:04.919Z,83.63
2022-10-30T04:28:32.271Z,85.50
2022-10-30T04:30:58.717Z,87.22
2022-10-30T04:33:26.007Z,88.37
2022-10-30T04:35:54.763Z,94.09
2022-10-30T04:38:21.420Z,97.30
2022-10-30T04:40:48.878Z,98.18
2022-10-30T04:43:16.000Z,98.26
2022-10-30T04:45:46.368Z,98.42
2022-10-30T04:48:18.357Z,98.81
2022-10-30T04:50:46.883Z,99.00
2022-10-30T04:53:21.184Z,100.00
2022-10-30T04:55:54.148Z,100.00
2022-10-30T04:58:20.910Z,100.00
2022-10-30T05:00:52.395Z,100.00
2022-10-30T05:03:22.496Z,99.26
2022-10-30T05:05:57.321Z,97.24
2022-10-30T05:08:23.927Z,94.43
2022-10-30T05:10:50.448Z,92.60
2022-10-30T05:13:17.084Z,90.55
2022-10-30T05:15:43.579Z,89.53
2022-10-30T05:18:10.301Z,88.21
2022-10-30T05:20:36.796Z,87.58
2022-10-30T05:23:03.520Z,87.04
2022-10-30T05:25:30.869Z,86.83
2022-10-30T05:28:00.304Z,86.64
2022-10-30T05:30:31.476Z,87.16
2022-10-30T05:33:07.939Z,87.54
2022-10-30T05:35:35.582Z,86.48
2022-10-30T05:38:05.876Z,86.58
2022-10-30T05:40:33.689Z,87.54
2022-10-30T05:43:00.872Z,88.03
2022-10-30T05:45:28.425Z,86.99
2022-10-30T05:48:02.526Z,86.36
2022-10-30T05:50:33.868Z,86.48
2022-10-30T05:53:14.777Z,86.29
2022-10-30T05:55:41.239Z,87.71
2022-10-30T05:58:14.002Z,87.77
2022-10-30T06:00:44.334Z,88.26
2022-10-30T06:03:14.104Z,89.21
2022-10-30T06:05:45.177Z,89.31
2022-10-30T06:08:13.156Z,89.24
2022-10-30T06:10:39.667Z,90.90
2022-10-30T06:13:20.305Z,92.74
2022-10-30T06:15:56.473Z,93.71
2022-10-30T06:18:25.027Z,93.00
2022-10-30T06:20:56.215Z,92.50
2022-10-30T06:23:27.043Z,92.67
2022-10-30T06:26:12.230Z,93.00
2022-10-30T06:28:43.512Z,93.75
2022-10-30T06:31:12.254Z,93.77
2022-10-30T06:33:39.389Z,94.46
2022-10-30T06:36:06.120Z,94.36
2022-10-30T06:38:32.756Z,94.94
2022-10-30T06:40:59.917Z,95.11
2022-10-30T06:44:05.170Z,94.44
2022-10-30T06:46:34.104Z,94.10
2022-10-30T06:49:00.962Z,94.07
2022-10-30T06:51:28.087Z,93.71
2022-10-30T06:53:54.644Z,94.03
2022-10-30T06:56:38.972Z,93.55
2022-10-30T06:59:37.579Z,92.81
2022-10-30T07:02:22.682Z,92.85
2022-10-30T07:04:56.401Z,92.09
2022-10-30T07:07:23.100Z,90.66
2022-10-30T07:09:50.002Z,89.98
2022-10-30T07:12:20.292Z,89.64
2022-10-30T07:14:59.769Z,89.15
2022-10-30T07:17:34.597Z,88.90
2022-10-30T07:20:07.796Z,89.16
2022-10-30T07:22:38.667Z,88.31
2022-10-30T07:25:05.304Z,84.91
2022-10-30T07:27:53.084Z,84.24
2022-10-30T07:30:29.566Z,84.45
2022-10-30T07:33:19.540Z,84.81
2022-10-30T07:36:00.455Z,83.14
2022-10-30T07:38:53.311Z,82.07
2022-10-30T07:41:31.058Z,81.57
2022-10-30T07:44:32.851Z,82.91
2022-10-30T07:47:12.663Z,82.70
2022-10-30T07:49:54.745Z,80.65
2022-10-30T07:52:21.216Z,80.40
2022-10-30T07:54:48.943Z,80.57
2022-10-30T07:57:40.319Z,80.74
2022-10-30T08:00:41.812Z,79.05
2022-10-30T08:03:18.352Z,78.33
2022-10-30T08:05:49.916Z,76.14
2022-10-30T08:08:32.612Z,74.87
2022-10-30T08:11:17.199Z,75.11
2022-10-30T08:13:43.821Z,73.32
2022-10-30T08:16:10.366Z,72.70
2022-10-30T08:18:38.665Z,72.43
2022-10-30T08:21:05.510Z,71.64
2022-10-30T08:23:32.192Z,71.75
2022-10-30T08:26:05.373Z,70.97
2022-10-30T08:28:35.581Z,71.30
2022-10-30T08:31:05.884Z,71.22
2022-10-30T08:34:05.656Z,71.11
2022-10-30T08:36:32.233Z,71.04
2022-10-30T08:38:58.977Z,70.90
2022-10-30T08:41:51.664Z,70.32
2022-10-30T08:44:20.032Z,69.90
2022-10-30T08:47:06.740Z,66.23
2022-10-30T08:49:36.343Z,66.86
2022-10-30T08:52:03.278Z,65.49
2022-10-30T08:54:29.720Z,64.26
2022-10-30T08:56:56.196Z,63.16
2022-10-30T08:59:23.830Z,61.99
2022-10-30T09:01:52.530Z,61.75
2022-10-30T09:04:19.128Z,63.79
2022-10-30T09:07:20.715Z,61.20
2022-10-30T09:09:47.159Z,60.34
2022-10-30T09:12:13.720Z,60.74
2022-10-30T09:14:43.454Z,60.62
2022-10-30T09:17:11.279Z,59.05
2022-10-30T09:19:40.325Z,58.09
2022-10-30T09:22:07.020Z,55.57
2022-10-30T09:24:40.452Z,54.92
2022-10-30T09:27:25.310Z,55.28
2022-10-30T09:29:55.234Z,53.03
2022-10-30T09:32:24.410Z,53.08
2022-10-30T09:35:20.125Z,53.30
2022-10-30T09:37:46.623Z,52.14
2022-10-30T09:40:34.741Z,51.90
2022-10-30T09:43:13.986Z,51.08
2022-10-30T09:46:02.660Z,51.81
2022-10-30T09:48:43.155Z,52.32
2022-10-30T09:51:42.533Z,51.61
2022-10-30T09:54:38.928Z,50.90
2022-10-30T09:57:25.080Z,49.72
2022-10-30T10:00:04.030Z,49.33
2022-10-30T10:02:31.172Z,49.76
2022-10-30T10:05:02.353Z,48.12
2022-10-30T10:08:02.588Z,51.19
2022-10-30T10:10:52.644Z,50.17
2022-10-30T10:13:33.120Z,49.79
2022-10-30T10:16:11.059Z,51.39
2022-10-30T10:18:51.631Z,52.33
2022-10-30T10:21:27.009Z,53.65
2022-10-30T10:23:56.787Z,53.86
2022-10-30T10:26:41.912Z,54.81
2022-10-30T10:29:28.985Z,56.24
2022-10-30T10:32:17.084Z,57.33
2022-10-30T10:34:57.941Z,57.86
2022-10-30T10:37:30.391Z,57.42
2022-10-30T10:40:23.259Z,57.67
2022-10-30T10:43:18.492Z,56.79
2022-10-30T10:46:00.195Z,57.16
2022-10-30T10:48:49.193Z,56.92
2022-10-30T10:51:20.152Z,56.87
2022-10-30T10:54:02.832Z,56.17
2022-10-30T10:56:37.686Z,56.52
2022-10-30T10:59:26.219Z,55.78
2022-10-30T11:01:58.885Z,55.05
2022-10-30T11:04:32.016Z,55.55
2022-10-30T11:07:02.827Z,55.36
2022-10-30T11:09:29.370Z,53.08
2022-10-30T11:11:56.312Z,51.05
2022-10-30T11:14:29.148Z,49.93
2022-10-30T11:17:26.527Z,50.24
2022-10-30T11:20:01.195Z,49.76
2022-10-30T11:22:35.215Z,49.10
2022-10-30T11:25:26.874Z,49.00
2022-10-30T11:27:59.571Z,49.01
2022-10-30T11:30:28.673Z,48.61
2022-10-30T11:32:57.282Z,49.01
2022-10-30T11:35:24.463Z,48.76
2022-10-30T11:38:11.274Z,48.61
2022-10-30T11:40:37.824Z,48.17
2022-10-30T11:43:05.893Z,48.29
2022-10-30T11:45:40.098Z,48.80
2022-10-30T11:48:15.628Z,48.85
2022-10-30T11:50:48.125Z,49.25
2022-10-30T11:53:41.225Z,50.40
2022-10-30T11:56:16.096Z,50.89
2022-10-30T11:58:55.299Z,51.24
2022-10-30T12:01:27.383Z,51.23
2022-10-30T12:03:55.358Z,49.59
2022-10-30T12:06:27.717Z,49.76
2022-10-30T12:09:19.665Z,50.18
2022-10-30T12:11:47.272Z,49.93
2022-10-30T12:14:24.275Z,50.89
2022-10-30T12:16:53.267Z,52.85
2022-10-30T12:19:22.674Z,52.62
2022-10-30T12:21:53.463Z,52.82
2022-10-30T12:24:35.776Z,53.30
2022-10-30T12:27:19.608Z,53.79
2022-10-30T12:30:13.258Z,54.32
2022-10-30T12:32:49.958Z,54.20
2022-10-30T12:35:48.308Z,54.71
2022-10-30T12:38:22.900Z,55.22
2022-10-30T12:41:11.351Z,57.58
2022-10-30T12:43:41.586Z,57.39
2022-10-30T12:46:35.907Z,56.40
2022-10-30T12:49:14.628Z,55.42
2022-10-30T12:51:52.798Z,55.51
2022-10-30T12:54:22.772Z,54.23
2022-10-30T12:56:57.093Z,53.37
2022-10-30T12:59:31.164Z,52.65
2022-10-30T13:02:09.670Z,50.75
2022-10-30T13:04:41.716Z,51.27
2022-10-30T13:07:26.563Z,51.12
2022-10-30T13:10:13.219Z,51.42
2022-10-30T13:12:44.370Z,51.86
2022-10-30T13:15:19.328Z,51.39
2022-10-30T13:17:45.808Z,50.83
2022-10-30T13:20:17.015Z,51.25
2022-10-30T13:22:49.048Z,51.14
2022-10-30T13:25:59.889Z,52.40
2022-10-30T13:28:33.252Z,54.54
2022-10-30T13:31:12.853Z,54.28
2022-10-30T13:33:46.227Z,53.54
2022-10-30T13:36:21.867Z,53.23
2022-10-30T13:38:54.077Z,52.51
2022-10-30T13:41:29.617Z,53.05
2022-10-30T13:44:03.129Z,52.94
2022-10-30T13:46:44.517Z,52.67
2022-10-30T13:49:33.513Z,55.28
2022-10-30T13:52:16.551Z,54.94
2022-10-30T13:54:54.969Z,55.08
2022-10-30T13:57:42.005Z,55.04
2022-10-30T14:00:27.268Z,56.40
2022-10-30T14:02:53.695Z,56.79
2022-10-30T14:05:29.155Z,60.79
2022-10-30T14:08:06.484Z,60.46
2022-10-30T14:10:42.999Z,61.90
2022-10-30T14:13:17.503Z,65.90
2022-10-30T14:15:45.752Z,65.00
2022-10-30T14:18:12.193Z,66.59
2022-10-30T14:20:47.278Z,72.27
2022-10-30T14:23:24.332Z,74.61
2022-10-30T14:26:03.174Z,72.87
2022-10-30T14:28:38.403Z,74.60
2022-10-30T14:31:10.138Z,76.50
2022-10-30T14:33:53.206Z,78.78
2022-10-30T14:36:19.765Z,79.80
2022-10-30T14:39:01.355Z,79.90
2022-10-30T14:41:31.924Z,81.10
2022-10-30T14:44:19.886Z,83.37
2022-10-30T14:47:09.786Z,85.11
2022-10-30T14:49:57.243Z,87.90
2022-10-30T14:52:48.839Z,86.46
2022-10-30T14:55:35.451Z,88.98
2022-10-30T14:58:02.110Z,90.40
2022-10-30T15:00:42.649Z,88.88
2022-10-30T15:03:20.322Z,90.39
2022-10-30T15:06:06.258Z,92.10
2022-10-30T15:08:45.335Z,89.85
2022-10-30T15:11:27.063Z,90.81
2022-10-30T15:13:57.503Z,89.76
2022-10-30T15:16:26.395Z,93.36
2022-10-30T15:19:02.972Z,94.35
2022-10-30T15:21:33.552Z,95.07
2022-10-30T15:24:02.363Z,94.53
2022-10-30T15:26:36.229Z,96.21
2022-10-30T15:29:05.581Z,95.83
2022-10-30T15:31:33.196Z,95.51
2022-10-30T15:33:59.758Z,95.55
2022-10-30T15:36:35.446Z,94.74
2022-10-30T15:39:16.072Z,95.00
2022-10-30T15:42:00.527Z,95.27
2022-10-30T15:44:29.900Z,95.41
2022-10-30T15:46:59.253Z,94.85
2022-10-30T15:49:37.727Z,96.05
2022-10-30T15:52:19.139Z,98.78
2022-10-30T15:54:49.114Z,99.62
2022-10-30T16:00:28.976Z,100.00
2022-10-30T16:03:02.653Z,100.00
2022-10-30T16:05:30.931Z,100.00
2022-10-30T16:07:59.533Z,100.00
2022-10-30T16:10:31.235Z,100.00
2022-10-30T16:12:58.868Z,100.00
2022-10-30T16:15:31.385Z,100.00
2022-10-30T16:18:07.824Z,99.84
2022-10-30T16:20:36.070Z,99.42
2022-10-30T16:23:04.340Z,98.38
2022-10-30T16:25:32.594Z,98.73
2022-10-30T16:27:59.372Z,99.87
2022-10-30T16:30:29.391Z,99.29
2022-10-30T16:32:56.374Z,98.01
2022-10-30T16:35:24.454Z,99.77
2022-10-30T16:37:51.622Z,99.43
2022-10-30T16:40:23.667Z,98.90
2022-10-30T16:43:01.566Z,100.00
2022-10-30T16:45:28.837Z,99.33
2022-10-30T16:48:08.417Z,100.00
2022-10-30T16:50:38.003Z,100.00
2022-10-30T16:53:06.581Z,100.00
2022-10-30T16:55:33.623Z,100.00
2022-10-30T16:58:00.565Z,100.00
2022-10-30T17:00:32.770Z,100.00
2022-10-30T17:03:08.356Z,100.00
2022-10-30T17:05:37.017Z,100.00
2022-10-30T17:08:16.938Z,100.00
2022-10-30T17:11:07.088Z,100.00
2022-10-30T17:13:52.394Z,99.44
2022-10-30T17:16:26.527Z,98.29
2022-10-30T17:18:55.530Z,96.86
2022-10-30T17:21:27.655Z,95.24
2022-10-30T17:23:59.736Z,95.24
2022-10-30T17:26:28.768Z,96.88
2022-10-30T17:28:55.446Z,98.42
2022-10-30T17:31:24.042Z,97.20
2022-10-30T17:34:02.792Z,96.88
2022-10-30T17:36:29.932Z,97.93
2022-10-30T17:38:56.388Z,98.45
2022-10-30T17:41:22.974Z,98.43
2022-10-30T17:43:52.004Z,98.41
2022-10-30T17:46:20.353Z,97.54
2022-10-30T17:48:47.501Z,97.07
2022-10-30T17:51:14.753Z,97.14
2022-10-30T17:53:41.591Z,97.62
2022-10-30T17:56:16.069Z,97.83
2022-10-30T17:58:42.604Z,96.46
2022-10-30T18:01:16.179Z,95.56
2022-10-30T18:03:42.692Z,93.67
2022-10-30T18:06:17.107Z,92.94
2022-10-30T18:08:47.818Z,92.61
2022-10-30T18:11:22.235Z,93.70
2022-10-30T18:13:49.293Z,91.83
2022-10-30T18:16:17.984Z,92.73
2022-10-30T18:18:45.455Z,94.98
2022-10-30T18:21:14.528Z,96.64
2022-10-30T18:23:56.425Z,97.09
2022-10-30T18:26:26.984Z,97.77
2022-10-30T18:28:54.010Z,97.94
2022-10-30T18:31:23.337Z,98.31
2022-10-30T18:33:50.465Z,98.62
2022-10-30T18:36:18.681Z,98.98
2022-10-30T18:38:45.247Z,99.03
2022-10-30T18:41:21.299Z,98.95
2022-10-30T18:43:47.728Z,98.78
2022-10-30T18:46:15.209Z,98.72
2022-10-30T18:48:41.750Z,99.98
2022-10-30T18:51:18.049Z,99.57
2022-10-30T18:53:51.295Z,99.73
2022-10-30T18:56:23.241Z,99.36
2022-10-30T18:58:54.787Z,98.86
2022-10-30T19:01:25.889Z,98.70
2022-10-30T19:03:52.498Z,98.64
2022-10-30T19:06:22.195Z,98.46
2022-10-30T19:08:48.950Z,99.88
2022-10-30T19:11:22.074Z,100.00
2022-10-30T19:13:51.442Z,100.00
2022-10-30T19:16:19.283Z,100.00
2022-10-30T19:18:46.827Z,100.00
2022-10-30T19:21:21.244Z,100.00
2022-10-30T19:23:48.202Z,100.00
2022-10-30T19:26:16.019Z,100.00
2022-10-30T19:28:43.380Z,100.00
2022-10-30T19:31:19.676Z,100.00
2022-10-30T19:33:50.014Z,100.00
2022-10-30T19:36:26.932Z,100.00
2022-10-30T19:38:53.940Z,100.00
2022-10-30T19:41:20.436Z,100.00
2022-10-30T19:43:46.998Z,100.00
2022-10-30T19:46:15.060Z,98.61
2022-10-30T19:48:58.568Z,97.96
2022-10-30T19:51:26.822Z,99.47
2022-10-30T19:53:53.823Z,98.88
2022-10-30T19:56:21.389Z,98.98
2022-10-30T19:58:48.208Z,100.00
2022-10-30T20:01:14.768Z,100.00
2022-10-30T20:03:41.553Z,100.00
2022-10-30T20:06:11.657Z,100.00
2022-10-30T20:08:38.108Z,100.00
2022-10-30T20:11:04.664Z,100.00
2022-10-30T20:13:32.801Z,100.00
2022-10-30T20:16:00.432Z,100.00
2022-10-30T20:18:30.501Z,100.00
2022-10-30T20:20:59.641Z,100.00
2022-10-30T20:23:26.802Z,100.00
2022-10-30T20:25:56.906Z,100.00
2022-10-30T20:28:32.125Z,100.00
2022-10-30T20:30:58.820Z,100.00
2022-10-30T20:33:25.720Z,100.00
2022-10-30T20:35:54.586Z,100.00
2022-10-30T20:38:32.674Z,100.00
2022-10-30T20:41:01.553Z,100.00
2022-10-30T20:43:38.965Z,100.00
2022-10-30T20:46:09.181Z,100.00
2022-10-30T20:48:35.940Z,100.00
2022-10-30T20:51:02.984Z,100.00
2022-10-30T20:53:30.199Z,100.00
2022-10-30T20:55:56.937Z,100.00
2022-10-30T20:58:23.953Z,100.00
2022-10-30T21:00:53.231Z,100.00
2022-10-30T21:03:19.712Z,100.00
2022-10-30T21:05:46.417Z,100.00
2022-10-30T21:08:14.137Z,100.00
2022-10-30T21:10:41.492Z,100.00
2022-10-30T21:13:09.726Z,100.00
2022-10-30T21:15:44.796Z,100.00
2022-10-30T21:18:15.330Z,100.00
2022-10-30T21:20:41.758Z,100.00
2022-10-30T21:23:08.767Z,100.00
2022-10-30T21:25:35.721Z,100.00
2022-10-30T21:28:03.223Z,100.00
2022-10-30T21:30:30.251Z,100.00
2022-10-30T21:32:58.652Z,99.98
2022-10-30T21:35:25.752Z,100.00
2022-10-30T21:37:52.205Z,100.00
2022-10-30T21:40:18.656Z,100.00
2022-10-30T21:42:47.882Z,100.00
2022-10-30T21:45:14.430Z,100.00
2022-10-30T21:47:40.856Z,100.00
2022-10-30T21:50:11.614Z,100.00
2022-10-30T21:52:38.915Z,100.00
2022-10-30T21:55:05.627Z,100.00
2022-10-30T21:57:32.135Z,100.00
2022-10-30T22:00:01.523Z,100.00
2022-10-30T22:02:33.770Z,100.00
2022-10-30T22:05:00.239Z,100.00
2022-10-30T22:07:26.674Z,100.00
2022-10-30T22:09:53.583Z,100.00
2022-10-30T22:12:20.122Z,100.00
2022-10-30T22:14:46.568Z,100.00
2022-10-30T22:17:13.172Z,100.00
2022-10-30T22:19:39.825Z,100.00
2022-10-30T22:22:06.903Z,100.00
2022-10-30T22:24:33.563Z,100.00
2022-10-30T22:27:00.066Z,100.00
2022-10-30T22:29:26.710Z,100.00
2022-10-30T22:31:53.556Z,100.00
2022-10-30T22:34:19.976Z,100.00
2022-10-30T22:36:46.883Z,100.00
2022-10-30T22:39:13.991Z,100.00
2022-10-30T22:41:40.977Z,100.00
2022-10-30T22:44:11.872Z,100.00
2022-10-30T22:46:38.687Z,100.00
2022-10-30T22:49:06.153Z,100.00
2022-10-30T22:51:35.202Z,100.00
2022-10-30T22:54:03.973Z,100.00
2022-10-30T22:56:35.873Z,100.00
2022-10-30T22:59:11.691Z,100.00
2022-10-30T23:01:39.468Z,100.00
2022-10-30T23:04:08.040Z,100.00
2022-10-30T23:06:35.712Z,100.00
2022-10-30T23:09:07.223Z,100.00
2022-10-30T23:11:34.022Z,100.00
2022-10-30T23:14:00.608Z,100.00
2022-10-30T23:16:28.197Z,100.00
2022-10-30T23:18:57.423Z,100.00
2022-10-30T23:21:26.014Z,100.00
2022-10-30T23:23:52.850Z,100.00
2022-10-30T23:26:22.188Z,100.00
2022-10-30T23:28:50.560Z,100.00
2022-10-30T23:31:26.534Z,100.00
2022-10-30T23:33:55.582Z,100.00
2022-10-30T23:36:23.232Z,100.00
2022-10-30T23:39:00.905Z,100.00
2022-10-30T23:41:30.097Z,100.00
2022-10-30T23:43:58.974Z,100.00
2022-10-30T23:46:26.174Z,100.00
2022-10-30T23:48:53.061Z,100.00
2022-10-30T23:51:20.620Z,100.00
2022-10-30T23:53:47.373Z,100.00
2022-10-30T23:56:14.108Z,100.00
2022-10-30T23:58:44.782Z,100.00
